createdAt,value
2018-04-17T00:00:33.791Z,28.30
2018-04-17T00:03:03.738Z,28.30
2018-04-17T00:05:34.352Z,28.40
2018-04-17T00:08:04.209Z,28.40
2018-04-17T00:10:34.183Z,28.50
2018-04-17T00:13:03.988Z,28.60
2018-04-17T00:15:33.724Z,28.60
2018-04-17T00:18:03.565Z,28.80
2018-04-17T00:20:33.375Z,28.90
2018-04-17T00:23:03.243Z,29.10
2018-04-17T00:25:33.052Z,29.20
2018-04-17T00:28:02.874Z,29.30
2018-04-17T00:30:33.635Z,29.30
2018-04-17T00:33:03.486Z,29.30
2018-04-17T00:35:33.304Z,29.40
2018-04-17T00:38:03.095Z,29.40
2018-04-17T00:40:32.823Z,29.40
2018-04-17T00:43:02.709Z,29.50
2018-04-17T00:45:32.488Z,29.50
2018-04-17T00:48:03.348Z,29.40
2018-04-17T00:50:33.111Z,29.40
2018-04-17T00:53:03.363Z,29.40
2018-04-17T00:55:33.878Z,29.30
2018-04-17T00:58:04.428Z,29.20
2018-04-17T01:00:34.278Z,29.20
2018-04-17T01:03:04.095Z,29.20
2018-04-17T01:05:33.899Z,29.20
2018-04-17T01:08:03.734Z,29.20
2018-04-17T01:10:33.520Z,29.20
2018-04-17T01:13:03.415Z,29.20
2018-04-17T01:15:33.213Z,29.10
2018-04-17T01:18:03.055Z,29.10
2018-04-17T01:20:32.850Z,29.10
2018-04-17T01:23:02.623Z,29.10
2018-04-17T01:25:32.446Z,29.10
2018-04-17T01:28:03.030Z,29.20
2018-04-17T01:30:32.818Z,29.20
2018-04-17T01:33:02.633Z,29.20
2018-04-17T01:35:32.510Z,29.20
2018-04-17T01:38:03.084Z,29.30
2018-04-17T01:40:32.898Z,29.20
2018-04-17T01:43:03.451Z,29.40
2018-04-17T01:45:33.265Z,29.30
2018-04-17T01:48:03.063Z,29.40
2018-04-17T01:50:32.947Z,29.30
2018-04-17T01:53:02.945Z,29.30
2018-04-17T01:55:33.535Z,29.30
2018-04-17T01:58:03.947Z,29.30
2018-04-17T02:00:33.771Z,29.30
2018-04-17T02:03:03.539Z,29.30
2018-04-17T02:05:33.358Z,29.40
2018-04-17T02:08:03.154Z,29.40
2018-04-17T02:10:33.763Z,29.60
2018-04-17T02:13:03.620Z,29.60
2018-04-17T02:15:33.445Z,29.60
2018-04-17T02:18:03.427Z,29.70
2018-04-17T02:20:34.019Z,29.70
2018-04-17T02:23:03.785Z,29.70
2018-04-17T02:25:33.660Z,29.70
2018-04-17T02:28:04.293Z,29.70
2018-04-17T02:30:34.103Z,29.70
2018-04-17T02:33:03.933Z,29.80
2018-04-17T02:35:34.571Z,29.80
2018-04-17T02:38:05.163Z,29.80
2018-04-17T02:40:34.965Z,29.80
2018-04-17T02:43:05.074Z,29.90
2018-04-17T02:45:34.946Z,30.00
2018-04-17T02:48:05.500Z,30.10
2018-04-17T02:50:35.352Z,30.10
2018-04-17T02:53:05.392Z,30.20
2018-04-17T02:55:35.960Z,30.30
2018-04-17T02:58:05.771Z,30.30
2018-04-17T03:00:35.656Z,30.40
2018-04-17T03:03:06.184Z,30.60
2018-04-17T03:05:36.835Z,30.60
2018-04-17T03:08:06.647Z,30.60
2018-04-17T03:10:36.450Z,30.70
2018-04-17T03:13:06.293Z,30.70
2018-04-17T03:15:36.102Z,30.70
2018-04-17T03:18:05.908Z,30.80
2018-04-17T03:20:35.711Z,30.80
2018-04-17T03:23:05.542Z,30.90
2018-04-17T03:25:35.332Z,30.90
2018-04-17T03:28:05.216Z,30.90
2018-04-17T03:30:35.799Z,31.00
2018-04-17T03:33:05.975Z,31.00
2018-04-17T03:35:36.565Z,31.00
2018-04-17T03:38:06.415Z,31.00
2018-04-17T03:40:37.370Z,31.00
2018-04-17T03:43:07.174Z,31.00
2018-04-17T03:45:37.717Z,31.00
2018-04-17T03:48:07.480Z,31.00
2018-04-17T03:50:37.287Z,31.00
2018-04-17T03:53:08.271Z,31.00
2018-04-17T03:55:38.090Z,31.00
2018-04-17T03:58:07.909Z,31.00
2018-04-17T04:00:37.716Z,31.00
2018-04-17T04:03:08.463Z,30.90
2018-04-17T04:05:38.589Z,30.90
2018-04-17T04:08:08.393Z,30.90
2018-04-17T04:10:38.489Z,30.90
2018-04-17T04:13:09.112Z,31.00
2018-04-17T04:15:38.907Z,31.10
2018-04-17T04:18:19.828Z,31.10
2018-04-17T04:21:00.922Z,31.10
2018-04-17T04:23:41.851Z,31.20
2018-04-17T04:26:37.594Z,31.40
2018-04-17T04:29:07.491Z,31.30
2018-04-17T04:31:37.309Z,31.50
2018-04-17T04:34:07.204Z,31.60
2018-04-17T04:36:37.832Z,31.70
2018-04-17T04:39:08.507Z,31.70
2018-04-17T04:41:38.388Z,31.70
2018-04-17T04:44:08.172Z,31.70
2018-04-17T04:46:38.029Z,31.80
2018-04-17T04:49:07.948Z,31.80
2018-04-17T04:51:37.746Z,31.80
2018-04-17T04:54:07.563Z,31.80
2018-04-17T04:56:37.369Z,31.80
2018-04-17T04:59:07.176Z,31.80
2018-04-17T05:01:36.998Z,31.80
2018-04-17T05:04:06.817Z,31.80
2018-04-17T05:06:36.651Z,31.80
2018-04-17T05:09:07.567Z,31.80
2018-04-17T05:11:37.395Z,31.70
2018-04-17T05:14:07.419Z,31.80
2018-04-17T05:16:37.327Z,31.70
2018-04-17T05:19:07.124Z,31.80
2018-04-17T05:21:37.237Z,31.70
2018-04-17T05:24:07.051Z,31.80
2018-04-17T05:26:36.907Z,31.80
2018-04-17T05:29:06.618Z,31.90
2018-04-17T05:31:36.588Z,32.00
2018-04-17T05:34:06.385Z,32.10
2018-04-17T05:36:36.939Z,32.10
2018-04-17T05:39:07.134Z,32.10
2018-04-17T05:41:37.727Z,32.20
2018-04-17T05:44:07.495Z,32.10
2018-04-17T05:46:37.382Z,32.20
2018-04-17T05:49:07.982Z,32.30
2018-04-17T05:51:37.873Z,32.20
2018-04-17T05:54:08.011Z,32.40
2018-04-17T05:56:37.964Z,32.40
2018-04-17T05:59:08.632Z,32.40
2018-04-17T06:01:38.503Z,32.30
2018-04-17T06:04:09.082Z,32.40
2018-04-17T06:06:38.972Z,32.40
2018-04-17T06:09:08.758Z,32.40
2018-04-17T06:11:39.327Z,32.50
2018-04-17T06:14:09.205Z,32.40
2018-04-17T06:16:39.821Z,32.50
2018-04-17T06:19:09.644Z,32.50
2018-04-17T06:21:40.870Z,32.50
2018-04-17T06:24:10.731Z,32.50
2018-04-17T06:26:40.578Z,32.50
2018-04-17T06:29:10.435Z,32.50
2018-04-17T06:31:40.966Z,32.40
2018-04-17T06:34:11.515Z,32.40
2018-04-17T06:36:41.355Z,32.40
2018-04-17T06:39:11.154Z,32.40
2018-04-17T06:41:41.003Z,32.30
2018-04-17T06:44:11.150Z,32.30
2018-04-17T06:46:41.909Z,32.40
2018-04-17T06:49:11.770Z,32.40
2018-04-17T06:51:42.094Z,32.40
2018-04-17T06:54:11.915Z,32.40
2018-04-17T06:56:41.710Z,32.40
2018-04-17T06:59:11.672Z,32.40
2018-04-17T07:01:42.108Z,32.40
2018-04-17T07:04:11.949Z,32.50
2018-04-17T07:06:42.099Z,32.60
2018-04-17T07:09:11.927Z,32.70
2018-04-17T07:11:42.540Z,32.90
2018-04-17T07:14:12.498Z,32.90
2018-04-17T07:16:42.319Z,33.00
2018-04-17T07:19:12.204Z,33.10
2018-04-17T07:21:42.794Z,33.30
2018-04-17T07:24:13.159Z,33.30
2018-04-17T07:26:43.834Z,33.50
2018-04-17T07:29:14.446Z,33.50
2018-04-17T07:31:44.260Z,33.60
2018-04-17T07:34:14.078Z,33.50
2018-04-17T07:36:44.625Z,33.50
2018-04-17T07:39:14.693Z,33.50
2018-04-17T07:41:45.368Z,33.60
2018-04-17T07:44:15.274Z,33.60
2018-04-17T07:46:46.004Z,33.60
2018-04-17T07:49:15.914Z,33.50
2018-04-17T07:51:45.780Z,33.50
2018-04-17T07:54:15.672Z,33.40
2018-04-17T07:56:45.557Z,33.30
2018-04-17T07:59:15.456Z,33.30
2018-04-17T08:01:45.297Z,33.20
2018-04-17T08:04:15.114Z,33.10
2018-04-17T08:06:44.984Z,33.00
2018-04-17T08:09:15.578Z,32.90
2018-04-17T08:11:45.413Z,32.90
2018-04-17T08:14:15.452Z,32.90
2018-04-17T08:16:46.503Z,32.70
2018-04-17T08:19:16.346Z,32.70
2018-04-17T08:21:46.161Z,32.70
2018-04-17T08:24:17.047Z,32.60
2018-04-17T08:26:48.634Z,32.60
2018-04-17T08:29:19.196Z,32.60
2018-04-17T08:31:49.193Z,32.60
2018-04-17T08:34:19.485Z,32.70
2018-04-17T08:36:49.370Z,32.70
2018-04-17T08:39:20.637Z,32.80
2018-04-17T08:41:51.234Z,32.80
2018-04-17T08:44:21.131Z,32.80
2018-04-17T08:46:51.013Z,32.70
2018-04-17T08:49:20.927Z,32.70
2018-04-17T08:51:50.929Z,32.70
2018-04-17T08:54:24.931Z,32.60
2018-04-17T08:56:55.155Z,32.60
2018-04-17T08:59:25.766Z,32.50
2018-04-17T09:01:56.538Z,32.50
2018-04-17T09:04:26.431Z,32.50
2018-04-17T09:06:57.029Z,32.50
2018-04-17T09:09:26.902Z,32.50
2018-04-17T09:11:57.207Z,32.50
2018-04-17T09:14:26.961Z,32.50
2018-04-17T09:16:56.727Z,32.60
2018-04-17T09:19:29.077Z,32.70
2018-04-17T09:21:59.006Z,32.60
2018-04-17T09:24:29.625Z,32.70
2018-04-17T09:27:00.873Z,32.70
2018-04-17T09:29:30.694Z,32.70
2018-04-17T09:32:01.380Z,32.50
2018-04-17T09:34:31.183Z,32.50
2018-04-17T09:37:01.054Z,32.50
2018-04-17T09:39:31.680Z,32.50
2018-04-17T09:42:02.239Z,32.50
2018-04-17T09:44:32.055Z,32.50
2018-04-17T09:47:01.954Z,32.50
2018-04-17T09:49:31.764Z,32.50
2018-04-17T09:52:03.308Z,32.40
2018-04-17T09:54:33.140Z,32.30
2018-04-17T09:57:04.070Z,32.20
2018-04-17T09:59:34.088Z,32.10
2018-04-17T10:02:03.932Z,32.10
2018-04-17T10:04:34.183Z,32.10
2018-04-17T10:07:04.006Z,32.00
2018-04-17T10:09:33.840Z,32.00
2018-04-17T10:12:04.413Z,32.00
2018-04-17T10:14:35.226Z,32.00
2018-04-17T10:17:05.048Z,31.90
2018-04-17T10:19:34.873Z,31.90
2018-04-17T10:22:04.639Z,31.80
2018-04-17T10:24:35.240Z,31.70
2018-04-17T10:27:05.081Z,31.70
2018-04-17T10:29:35.642Z,31.60
2018-04-17T10:32:05.490Z,31.60
2018-04-17T10:34:35.339Z,31.60
2018-04-17T10:37:05.924Z,31.50
2018-04-17T10:39:36.374Z,31.50
2018-04-17T10:42:06.178Z,31.40
2018-04-17T10:44:35.969Z,31.40
2018-04-17T10:47:05.795Z,31.40
2018-04-17T10:49:35.573Z,31.30
2018-04-17T10:52:05.390Z,31.20
2018-04-17T10:54:35.210Z,31.10
2018-04-17T10:57:05.403Z,31.00
2018-04-17T10:59:35.193Z,31.00
2018-04-17T11:02:05.779Z,30.90
2018-04-17T11:04:35.615Z,30.80
2018-04-17T11:07:05.462Z,30.80
2018-04-17T11:09:35.262Z,30.80
2018-04-17T11:12:05.809Z,30.70
2018-04-17T11:14:56.043Z,30.70
2018-04-17T11:17:30.299Z,30.60
2018-04-17T11:20:00.915Z,30.50
2018-04-17T11:22:30.719Z,30.50
2018-04-17T11:25:00.514Z,30.40
2018-04-17T11:27:30.375Z,30.30
2018-04-17T11:30:00.935Z,30.20
2018-04-17T11:32:30.715Z,30.20
2018-04-17T11:35:02.015Z,30.10
2018-04-17T11:37:31.942Z,30.10
2018-04-17T11:40:02.852Z,30.10
2018-04-17T11:42:32.749Z,30.00
2018-04-17T11:45:02.527Z,30.10
2018-04-17T11:47:33.102Z,30.00
2018-04-17T11:50:02.908Z,30.00
2018-04-17T11:52:32.784Z,30.00
2018-04-17T11:55:03.938Z,29.90
2018-04-17T11:57:34.577Z,29.90
2018-04-17T12:00:04.548Z,29.80
2018-04-17T12:02:34.342Z,29.80
2018-04-17T12:05:04.933Z,29.70
2018-04-17T12:07:35.468Z,29.60
2018-04-17T12:10:05.723Z,29.60
2018-04-17T12:12:35.505Z,29.50
2018-04-17T12:15:06.168Z,29.50
2018-04-17T12:17:35.975Z,29.50
2018-04-17T12:20:06.080Z,29.50
2018-04-17T12:22:35.904Z,29.50
2018-04-17T12:25:06.522Z,29.50
2018-04-17T12:27:36.310Z,30.00
2018-04-17T12:30:06.935Z,29.40
2018-04-17T12:32:37.513Z,29.40
2018-04-17T12:35:07.325Z,29.40
2018-04-17T12:37:37.169Z,29.40
2018-04-17T12:40:07.235Z,29.40
2018-04-17T12:42:37.283Z,29.40
2018-04-17T12:45:07.087Z,29.40
2018-04-17T12:47:36.868Z,30.50
2018-04-17T12:50:06.743Z,29.40
2018-04-17T12:52:36.582Z,29.40
2018-04-17T12:55:06.414Z,29.30
2018-04-17T12:57:36.352Z,29.30
2018-04-17T13:00:06.608Z,29.40
2018-04-17T13:02:36.452Z,29.30
2018-04-17T13:05:06.321Z,29.30
2018-04-17T13:07:36.144Z,29.30
2018-04-17T13:10:06.135Z,29.40
2018-04-17T13:12:35.939Z,29.40
2018-04-17T13:15:05.811Z,29.30
2018-04-17T13:17:36.266Z,29.30
2018-04-17T13:20:06.173Z,29.30
2018-04-17T13:22:35.980Z,29.30
2018-04-17T13:25:06.784Z,29.30
2018-04-17T13:27:37.526Z,29.30
2018-04-17T13:30:08.056Z,29.30
2018-04-17T13:32:38.654Z,29.30
2018-04-17T13:35:08.467Z,29.30
2018-04-17T13:37:39.079Z,29.30
2018-04-17T13:40:08.991Z,29.30
2018-04-17T13:42:38.764Z,29.40
2018-04-17T13:45:08.575Z,29.40
2018-04-17T13:47:39.121Z,29.60
2018-04-17T13:50:08.934Z,29.50
2018-04-17T13:52:38.780Z,29.60
2018-04-17T13:55:08.926Z,29.60
2018-04-17T13:57:38.762Z,29.60
2018-04-17T14:00:08.663Z,29.60
2018-04-17T14:02:39.187Z,29.70
2018-04-17T14:05:10.320Z,29.70
2018-04-17T14:07:40.142Z,29.70
2018-04-17T14:10:10.722Z,29.80
2018-04-17T14:12:40.541Z,29.70
2018-04-17T14:15:10.345Z,29.80
2018-04-17T14:17:40.163Z,29.80
2018-04-17T14:20:10.027Z,29.80
2018-04-17T14:22:40.612Z,29.80
2018-04-17T14:25:10.471Z,29.80
2018-04-17T14:27:41.048Z,29.70
2018-04-17T14:30:10.904Z,29.70
2018-04-17T14:32:40.741Z,29.60
2018-04-17T14:35:11.382Z,29.60
2018-04-17T14:37:41.177Z,29.60
2018-04-17T14:40:11.816Z,29.50
2018-04-17T14:42:43.377Z,29.50
2018-04-17T14:45:13.748Z,29.50
2018-04-17T14:47:44.415Z,29.50
2018-04-17T14:50:15.039Z,29.40
2018-04-17T14:52:45.732Z,29.40
2018-04-17T14:55:16.542Z,29.30
2018-04-17T14:57:46.443Z,29.30
2018-04-17T15:00:16.274Z,29.20
2018-04-17T15:02:46.091Z,29.10
2018-04-17T15:05:15.962Z,29.00
2018-04-17T15:07:46.604Z,29.00
2018-04-17T15:10:17.210Z,29.00
2018-04-17T15:12:46.988Z,29.00
2018-04-17T15:15:16.793Z,28.90
2018-04-17T15:17:46.587Z,28.80
2018-04-17T15:20:17.363Z,28.70
2018-04-17T15:22:47.179Z,28.60
2018-04-17T15:25:17.044Z,28.60
2018-04-17T15:27:47.025Z,28.50
2018-04-17T15:30:18.321Z,28.50
2018-04-17T15:32:48.185Z,28.50
2018-04-17T15:35:18.433Z,28.40
2018-04-17T15:37:48.262Z,28.50
2018-04-17T15:40:19.107Z,28.50
2018-04-17T15:42:48.967Z,28.50
2018-04-17T15:45:19.588Z,28.50
2018-04-17T15:47:49.540Z,28.40
2018-04-17T15:50:19.378Z,28.40
2018-04-17T15:52:49.175Z,28.30
2018-04-17T15:55:20.103Z,28.40
2018-04-17T15:57:49.901Z,28.40
2018-04-17T16:00:20.519Z,28.40
2018-04-17T16:02:50.374Z,28.40
2018-04-17T16:05:20.204Z,28.40
2018-04-17T16:07:51.517Z,28.40
2018-04-17T16:10:21.343Z,28.40
2018-04-17T16:12:51.155Z,28.40
2018-04-17T16:15:22.098Z,28.40
2018-04-17T16:17:51.904Z,28.40
2018-04-17T16:20:21.874Z,28.40
2018-04-17T16:22:52.045Z,28.40
2018-04-17T16:25:22.234Z,28.50
2018-04-17T16:27:53.200Z,28.40
2018-04-17T16:30:24.150Z,28.40
2018-04-17T16:32:53.893Z,28.40
2018-04-17T16:35:23.844Z,28.30
2018-04-17T16:37:54.751Z,28.20
2018-04-17T16:40:24.492Z,28.20
2018-04-17T16:42:55.095Z,28.10
2018-04-17T16:45:25.520Z,28.10
2018-04-17T16:47:55.359Z,28.00
2018-04-17T16:50:25.963Z,28.00
2018-04-17T16:52:55.777Z,28.00
2018-04-17T16:55:25.558Z,28.00
2018-04-17T16:57:55.375Z,28.00
2018-04-17T17:00:26.304Z,27.90
2018-04-17T17:02:56.123Z,27.90
2018-04-17T17:05:26.865Z,27.90
2018-04-17T17:07:57.607Z,27.90
2018-04-17T17:10:27.452Z,27.90
2018-04-17T17:12:58.260Z,28.00
2018-04-17T17:15:28.002Z,28.00
2018-04-17T17:17:58.575Z,28.10
2018-04-17T17:20:28.404Z,28.10
2018-04-17T17:22:58.247Z,28.10
2018-04-17T17:25:28.004Z,28.10
2018-04-17T17:27:57.763Z,28.10
2018-04-17T17:30:27.851Z,28.10
2018-04-17T17:32:59.077Z,28.10
2018-04-17T17:35:29.037Z,28.10
2018-04-17T17:37:58.824Z,28.10
2018-04-17T17:40:28.774Z,28.10
2018-04-17T17:42:59.771Z,28.20
2018-04-17T17:45:29.572Z,28.20
2018-04-17T17:47:59.415Z,28.20
2018-04-17T17:50:30.536Z,28.10
2018-04-17T17:53:00.362Z,28.10
2018-04-17T17:55:30.170Z,28.10
2018-04-17T17:58:00.814Z,28.00
2018-04-17T18:00:30.767Z,28.00
2018-04-17T18:03:01.302Z,27.90
2018-04-17T18:05:32.212Z,27.90
2018-04-17T18:08:02.014Z,27.90
2018-04-17T18:10:32.105Z,27.90
2018-04-17T18:13:01.899Z,27.90
2018-04-17T18:15:31.895Z,27.90
2018-04-17T18:18:02.527Z,27.80
2018-04-17T18:20:33.140Z,27.80
2018-04-17T18:23:03.002Z,27.80
2018-04-17T18:25:32.775Z,27.80
2018-04-17T18:28:03.352Z,27.80
2018-04-17T18:30:33.216Z,27.70
2018-04-17T18:33:03.769Z,27.80
2018-04-17T18:35:33.569Z,27.70
2018-04-17T18:38:04.159Z,27.70
2018-04-17T18:40:33.978Z,27.70
2018-04-17T18:43:04.352Z,27.70
2018-04-17T18:45:34.223Z,27.70
2018-04-17T18:48:04.798Z,27.70
2018-04-17T18:50:34.611Z,27.70
2018-04-17T18:53:04.398Z,27.70
2018-04-17T18:55:34.314Z,27.70
2018-04-17T18:58:05.361Z,27.60
2018-04-17T19:00:35.202Z,27.60
2018-04-17T19:03:05.014Z,27.60
2018-04-17T19:05:35.135Z,27.60
2018-04-17T19:08:06.218Z,27.60
2018-04-17T19:10:36.040Z,27.60
2018-04-17T19:13:06.683Z,27.60
2018-04-17T19:15:37.246Z,27.70
2018-04-17T19:18:07.924Z,27.70
2018-04-17T19:20:37.699Z,27.70
2018-04-17T19:23:07.547Z,27.70
2018-04-17T19:25:37.331Z,27.70
2018-04-17T19:28:07.109Z,27.60
2018-04-17T19:30:37.205Z,27.60
2018-04-17T19:33:07.484Z,27.60
2018-04-17T19:35:38.387Z,27.60
2018-04-17T19:38:08.142Z,27.60
2018-04-17T19:40:38.140Z,27.60
2018-04-17T19:43:08.352Z,27.60
2018-04-17T19:45:38.468Z,27.60
2018-04-17T19:48:09.298Z,27.60
2018-04-17T19:50:39.089Z,27.60
2018-04-17T19:53:09.749Z,27.60
2018-04-17T19:55:39.585Z,27.50
2018-04-17T19:58:10.414Z,27.50
2018-04-17T20:00:40.257Z,27.50
2018-04-17T20:03:10.052Z,27.50
2018-04-17T20:05:40.656Z,27.50
2018-04-17T20:08:10.507Z,27.50
2018-04-17T20:10:41.129Z,27.50
2018-04-17T20:13:10.983Z,27.50
2018-04-17T20:15:41.599Z,27.40
2018-04-17T20:18:12.140Z,27.40
2018-04-17T20:20:42.742Z,27.30
2018-04-17T20:23:12.498Z,27.30
2018-04-17T20:25:42.332Z,27.30
2018-04-17T20:28:12.433Z,27.30
2018-04-17T20:30:42.378Z,27.40
2018-04-17T20:33:12.927Z,27.40
2018-04-17T20:35:42.731Z,27.40
2018-04-17T20:38:12.538Z,27.40
2018-04-17T20:40:42.714Z,27.40
2018-04-17T20:43:13.055Z,27.40
2018-04-17T20:45:43.103Z,27.40
2018-04-17T20:48:13.337Z,27.40
2018-04-17T20:50:43.706Z,27.40
2018-04-17T20:53:13.939Z,27.40
2018-04-17T20:55:44.217Z,27.40
2018-04-17T20:58:15.088Z,27.40
2018-04-17T21:00:44.878Z,27.40
2018-04-17T21:03:15.572Z,27.30
2018-04-17T21:05:46.535Z,27.30
2018-04-17T21:08:16.544Z,27.30
2018-04-17T21:10:46.566Z,27.40
2018-04-17T21:13:16.721Z,27.30
2018-04-17T21:15:46.668Z,27.40
2018-04-17T21:18:16.533Z,27.30
2018-04-17T21:20:47.080Z,27.40
2018-04-17T21:23:17.005Z,27.40
2018-04-17T21:25:46.835Z,27.40
2018-04-17T21:28:16.630Z,27.40
2018-04-17T21:30:46.648Z,27.50
2018-04-17T21:33:16.783Z,27.40
2018-04-17T21:35:47.061Z,27.40
2018-04-17T21:38:18.053Z,27.40
2018-04-17T21:40:47.850Z,27.40
2018-04-17T21:43:17.684Z,27.40
2018-04-17T21:45:48.606Z,27.40
2018-04-17T21:48:18.419Z,27.40
2018-04-17T21:50:49.003Z,27.40
2018-04-17T21:53:19.591Z,27.30
2018-04-17T21:55:49.412Z,27.30
2018-04-17T21:58:19.243Z,27.40
2018-04-17T22:00:49.887Z,27.30
2018-04-17T22:03:20.458Z,27.30
2018-04-17T22:05:50.679Z,27.30
2018-04-17T22:08:20.467Z,27.20
2018-04-17T22:10:50.323Z,27.20
2018-04-17T22:13:20.177Z,27.20
2018-04-17T22:15:50.122Z,27.20
2018-04-17T22:18:21.279Z,27.20
2018-04-17T22:20:51.819Z,27.10
2018-04-17T22:23:22.375Z,27.10
2018-04-17T22:25:52.883Z,27.20
2018-04-17T22:28:22.904Z,27.20
2018-04-17T22:30:52.822Z,27.10
2018-04-17T22:33:22.880Z,27.20
2018-04-17T22:35:53.486Z,27.20
2018-04-17T22:38:23.338Z,27.20
2018-04-17T22:40:56.969Z,27.20
2018-04-17T22:43:26.996Z,27.20
2018-04-17T22:45:56.925Z,27.20
2018-04-17T22:48:26.919Z,27.20
2018-04-17T22:50:56.984Z,27.20
2018-04-17T22:53:27.758Z,27.00
2018-04-17T22:55:57.722Z,27.00
2018-04-17T22:58:27.689Z,26.90
2018-04-17T23:00:57.464Z,26.80
2018-04-17T23:03:27.955Z,26.80
2018-04-17T23:05:58.086Z,26.70
2018-04-17T23:08:27.870Z,26.70
2018-04-17T23:10:58.619Z,26.70
2018-04-17T23:13:28.418Z,26.60
2018-04-17T23:15:58.217Z,26.70
2018-04-17T23:18:28.045Z,26.70
2018-04-17T23:20:57.799Z,26.70
2018-04-17T23:23:28.377Z,26.80
2018-04-17T23:25:58.178Z,26.80
2018-04-17T23:28:28.030Z,26.80
2018-04-17T23:30:57.826Z,26.80
2018-04-17T23:33:27.679Z,26.80
2018-04-17T23:35:58.318Z,26.80
2018-04-17T23:38:28.890Z,26.80
2018-04-17T23:40:58.685Z,26.70
2018-04-17T23:43:28.699Z,26.80
2018-04-17T23:45:58.475Z,26.80
2018-04-17T23:48:29.931Z,26.90
2018-04-17T23:51:00.570Z,27.00
2018-04-17T23:53:31.094Z,26.90
2018-04-17T23:56:01.667Z,27.00
2018-04-17T23:58:31.491Z,27.00
